sensor_id;sensor_type;location;lat;lon;timestamp;pressure;altitude;pressure_sealevel;temperature;humidity
5966;BME280;3009;43.224;27.976;2023-06-22T00:00:36;100552.88;;;21.54;96.45
5966;BME280;3009;43.224;27.976;2023-06-22T00:03:06;100548.59;;;21.53;96.60
5966;BME280;3009;43.224;27.976;2023-06-22T00:05:34;100545.91;;;21.56;95.81
5966;BME280;3009;43.224;27.976;2023-06-22T00:08:03;100540.50;;;21.64;95.02
5966;BME280;3009;43.224;27.976;2023-06-22T00:10:32;100541.28;;;21.64;95.04
5966;BME280;3009;43.224;27.976;2023-06-22T00:13:03;100547.50;;;21.61;95.34
5966;BME280;3009;43.224;27.976;2023-06-22T00:15:32;100545.91;;;21.60;95.32
5966;BME280;3009;43.224;27.976;2023-06-22T00:18:00;100547.50;;;21.61;95.21
5966;BME280;3009;43.224;27.976;2023-06-22T00:20:29;100554.53;;;21.62;94.55
5966;BME280;3009;43.224;27.976;2023-06-22T00:22:59;100562.34;;;21.67;94.05
5966;BME280;3009;43.224;27.976;2023-06-22T00:25:28;100554.97;;;21.71;92.86
5966;BME280;3009;43.224;27.976;2023-06-22T00:27:56;100555.38;;;21.73;91.92
5966;BME280;3009;43.224;27.976;2023-06-22T00:30:26;100551.06;;;21.72;91.63
5966;BME280;3009;43.224;27.976;2023-06-22T00:32:55;100555.75;;;21.75;91.31
5966;BME280;3009;43.224;27.976;2023-06-22T00:35:23;100554.94;;;21.68;91.98
5966;BME280;3009;43.224;27.976;2023-06-22T00:37:56;100559.19;;;21.62;92.72
5966;BME280;3009;43.224;27.976;2023-06-22T00:40:28;100557.16;;;21.51;94.00
5966;BME280;3009;43.224;27.976;2023-06-22T00:42:57;100558.34;;;21.50;94.69
5966;BME280;3009;43.224;27.976;2023-06-22T00:45:27;100559.00;;;21.43;95.42
5966;BME280;3009;43.224;27.976;2023-06-22T00:47:56;100566.03;;;21.45;95.04
5966;BME280;3009;43.224;27.976;2023-06-22T00:50:27;100557.84;;;21.45;95.11
5966;BME280;3009;43.224;27.976;2023-06-22T00:53:03;100563.72;;;21.47;94.61
5966;BME280;3009;43.224;27.976;2023-06-22T00:55:36;100552.88;;;21.54;93.75
5966;BME280;3009;43.224;27.976;2023-06-22T00:58:06;100561.50;;;21.59;92.79
5966;BME280;3009;43.224;27.976;2023-06-22T01:00:39;100565.84;;;21.64;92.56
5966;BME280;3009;43.224;27.976;2023-06-22T01:03:08;100559.97;;;21.62;91.91
5966;BME280;3009;43.224;27.976;2023-06-22T01:05:38;100557.25;;;21.62;92.29
5966;BME280;3009;43.224;27.976;2023-06-22T01:08:16;100560.75;;;21.59;93.05
5966;BME280;3009;43.224;27.976;2023-06-22T01:10:50;100559.16;;;21.58;93.07
5966;BME280;3009;43.224;27.976;2023-06-22T01:13:28;100557.84;;;21.45;94.54
5966;BME280;3009;43.224;27.976;2023-06-22T01:16:03;100557.09;;;21.48;94.43
5966;BME280;3009;43.224;27.976;2023-06-22T01:18:35;100555.44;;;21.36;95.96
5966;BME280;3009;43.224;27.976;2023-06-22T01:21:06;100549.19;;;21.32;96.08
5966;BME280;3009;43.224;27.976;2023-06-22T01:23:50;100555.44;;;21.36;95.27
5966;BME280;3009;43.224;27.976;2023-06-22T01:26:33;100560.88;;;21.32;95.86
5966;BME280;3009;43.224;27.976;2023-06-22T01:29:11;100554.59;;;21.28;96.35
5966;BME280;3009;43.224;27.976;2023-06-22T01:31:41;100549.50;;;21.23;96.66
5966;BME280;3009;43.224;27.976;2023-06-22T01:34:14;100543.22;;;21.19;97.11
5966;BME280;3009;43.224;27.976;2023-06-22T01:36:44;100545.59;;;21.20;97.18
5966;BME280;3009;43.224;27.976;2023-06-22T01:39:13;100544.81;;;21.20;96.89
5966;BME280;3009;43.224;27.976;2023-06-22T01:41:45;100545.56;;;21.17;97.40
5966;BME280;3009;43.224;27.976;2023-06-22T01:44:16;100549.44;;;21.16;97.30
5966;BME280;3009;43.224;27.976;2023-06-22T01:46:45;100541.63;;;21.14;97.64
5966;BME280;3009;43.224;27.976;2023-06-22T01:49:14;100558.38;;;21.13;97.96
5966;BME280;3009;43.224;27.976;2023-06-22T01:51:43;100563.81;;;21.13;97.97
5966;BME280;3009;43.224;27.976;2023-06-22T01:54:12;100555.66;;;21.13;98.18
5966;BME280;3009;43.224;27.976;2023-06-22T01:56:40;100556.72;;;21.04;99.35
5966;BME280;3009;43.224;27.976;2023-06-22T01:59:14;100555.56;;;21.02;99.21
5966;BME280;3009;43.224;27.976;2023-06-22T02:01:53;100550.78;;;20.95;99.89
5966;BME280;3009;43.224;27.976;2023-06-22T02:04:26;100553.94;;;20.97;100.00
5966;BME280;3009;43.224;27.976;2023-06-22T02:06:57;100549.56;;;20.89;100.00
5966;BME280;3009;43.224;27.976;2023-06-22T02:09:29;100558.56;;;20.93;100.00
5966;BME280;3009;43.224;27.976;2023-06-22T02:12:00;100561.94;;;20.79;100.00
5966;BME280;3009;43.224;27.976;2023-06-22T02:14:30;100571.25;;;20.75;100.00
5966;BME280;3009;43.224;27.976;2023-06-22T02:17:01;100555.63;;;20.71;100.00
5966;BME280;3009;43.224;27.976;2023-06-22T02:19:30;100571.63;;;20.77;100.00
5966;BME280;3009;43.224;27.976;2023-06-22T02:22:00;100573.22;;;20.78;100.00
5966;BME280;3009;43.224;27.976;2023-06-22T02:24:28;100571.34;;;20.85;100.00
5966;BME280;3009;43.224;27.976;2023-06-22T02:26:59;100580.72;;;20.88;100.00
5966;BME280;3009;43.224;27.976;2023-06-22T02:29:28;100581.13;;;20.90;100.00
5966;BME280;3009;43.224;27.976;2023-06-22T02:31:57;100578.06;;;20.95;100.00
5966;BME280;3009;43.224;27.976;2023-06-22T02:34:26;100581.22;;;21.01;98.99
5966;BME280;3009;43.224;27.976;2023-06-22T02:36:55;100587.09;;;21.03;98.78
5966;BME280;3009;43.224;27.976;2023-06-22T02:39:24;100588.22;;;20.98;99.72
5966;BME280;3009;43.224;27.976;2023-06-22T02:41:54;100578.09;;;20.99;100.00
5966;BME280;3009;43.224;27.976;2023-06-22T02:44:23;100589.69;;;20.92;100.00
5966;BME280;3009;43.224;27.976;2023-06-22T02:46:52;100598.59;;;20.85;100.00
5966;BME280;3009;43.224;27.976;2023-06-22T02:49:21;100605.66;;;20.90;100.00
5966;BME280;3009;43.224;27.976;2023-06-22T02:51:52;100599.06;;;20.91;100.00
5966;BME280;3009;43.224;27.976;2023-06-22T02:54:22;100602.56;;;20.92;100.00
5966;BME280;3009;43.224;27.976;2023-06-22T02:56:51;100607.72;;;21.00;99.51
5966;BME280;3009;43.224;27.976;2023-06-22T02:59:19;100596.84;;;21.04;98.15
5966;BME280;3009;43.224;27.976;2023-06-22T03:01:51;100606.69;;;21.16;97.13
5966;BME280;3009;43.224;27.976;2023-06-22T03:04:20;100617.69;;;21.23;95.53
5966;BME280;3009;43.224;27.976;2023-06-22T03:06:49;100611.53;;;21.33;94.41
5966;BME280;3009;43.224;27.976;2023-06-22T03:09:20;100607.50;;;21.61;92.38
5966;BME280;3009;43.224;27.976;2023-06-22T03:11:48;100604.81;;;22.24;86.49
5966;BME280;3009;43.224;27.976;2023-06-22T03:14:17;100609.75;;;22.74;81.59
5966;BME280;3009;43.224;27.976;2023-06-22T03:16:46;100609.88;;;23.28;77.77
5966;BME280;3009;43.224;27.976;2023-06-22T03:19:14;100615.34;;;23.35;77.07
5966;BME280;3009;43.224;27.976;2023-06-22T03:21:43;100618.88;;;23.79;75.02
5966;BME280;3009;43.224;27.976;2023-06-22T03:24:12;100610.66;;;23.82;74.12
5966;BME280;3009;43.224;27.976;2023-06-22T03:26:41;100617.28;;;23.13;76.87
5966;BME280;3009;43.224;27.976;2023-06-22T03:29:13;100620.03;;;23.16;77.25
5966;BME280;3009;43.224;27.976;2023-06-22T03:31:42;100618.06;;;23.13;77.48
5966;BME280;3009;43.224;27.976;2023-06-22T03:34:11;100626.56;;;22.90;78.87
5966;BME280;3009;43.224;27.976;2023-06-22T03:36:39;100620.19;;;22.46;82.78
5966;BME280;3009;43.224;27.976;2023-06-22T03:39:08;100623.91;;;22.17;85.55
5966;BME280;3009;43.224;27.976;2023-06-22T03:41:36;100619.47;;;21.98;87.05
5966;BME280;3009;43.224;27.976;2023-06-22T03:44:06;100627.41;;;22.21;86.35
5966;BME280;3009;43.224;27.976;2023-06-22T03:46:37;100636.38;;;23.02;80.70
5966;BME280;3009;43.224;27.976;2023-06-22T03:49:06;100634.94;;;23.95;74.18
5966;BME280;3009;43.224;27.976;2023-06-22T03:51:34;100630.47;;;24.51;69.16
5966;BME280;3009;43.224;27.976;2023-06-22T03:54:03;100635.28;;;25.14;66.59
5966;BME280;3009;43.224;27.976;2023-06-22T03:56:31;100642.28;;;25.26;65.81
5966;BME280;3009;43.224;27.976;2023-06-22T03:59:00;100638.44;;;25.12;66.38
5966;BME280;3009;43.224;27.976;2023-06-22T04:01:30;100641.25;;;24.98;66.91
5966;BME280;3009;43.224;27.976;2023-06-22T04:04:00;100641.56;;;24.08;71.58
5966;BME280;3009;43.224;27.976;2023-06-22T04:06:29;100631.00;;;23.45;75.89
5966;BME280;3009;43.224;27.976;2023-06-22T04:08:57;100635.69;;;23.38;76.59
5966;BME280;3009;43.224;27.976;2023-06-22T04:11:27;100646.63;;;23.52;76.25
5966;BME280;3009;43.224;27.976;2023-06-22T04:13:56;100633.34;;;23.40;76.90
5966;BME280;3009;43.224;27.976;2023-06-22T04:16:24;100639.63;;;23.80;74.50
5966;BME280;3009;43.224;27.976;2023-06-22T04:18:54;100651.31;;;24.31;70.85
5966;BME280;3009;43.224;27.976;2023-06-22T04:21:23;100648.56;;;25.19;66.28
5966;BME280;3009;43.224;27.976;2023-06-22T04:23:51;100637.81;;;25.50;64.55
5966;BME280;3009;43.224;27.976;2023-06-22T04:26:20;100640.28;;;25.34;65.27
5966;BME280;3009;43.224;27.976;2023-06-22T04:28:48;100653.53;;;24.72;68.39
5966;BME280;3009;43.224;27.976;2023-06-22T04:31:18;100648.41;;;24.81;68.51
5966;BME280;3009;43.224;27.976;2023-06-22T04:33:47;100646.44;;;24.85;69.29
5966;BME280;3009;43.224;27.976;2023-06-22T04:36:19;100658.19;;;24.82;68.61
5966;BME280;3009;43.224;27.976;2023-06-22T04:38:51;100659.00;;;26.37;62.47
5966;BME280;3009;43.224;27.976;2023-06-22T04:41:19;100656.69;;;26.66;60.33
5966;BME280;3009;43.224;27.976;2023-06-22T04:43:51;100665.09;;;27.17;57.91
5966;BME280;3009;43.224;27.976;2023-06-22T04:46:21;100658.91;;;26.78;59.11
5966;BME280;3009;43.224;27.976;2023-06-22T04:48:49;100670.03;;;26.71;59.47
5966;BME280;3009;43.224;27.976;2023-06-22T04:51:19;100673.47;;;26.79;60.24
5966;BME280;3009;43.224;27.976;2023-06-22T04:53:48;100677.00;;;27.61;58.46
5966;BME280;3009;43.224;27.976;2023-06-22T04:56:17;100680.44;;;28.16;54.83
5966;BME280;3009;43.224;27.976;2023-06-22T04:58:48;100681.06;;;29.04;51.54
5966;BME280;3009;43.224;27.976;2023-06-22T05:01:18;100678.25;;;28.88;51.75
5966;BME280;3009;43.224;27.976;2023-06-22T05:03:49;100684.72;;;28.81;52.34
5966;BME280;3009;43.224;27.976;2023-06-22T05:06:19;100672.59;;;29.64;49.24
5966;BME280;3009;43.224;27.976;2023-06-22T05:08:49;100674.66;;;29.77;48.94
5966;BME280;3009;43.224;27.976;2023-06-22T05:11:18;100673.38;;;30.56;47.29
5966;BME280;3009;43.224;27.976;2023-06-22T05:13:46;100677.69;;;30.70;46.32
5966;BME280;3009;43.224;27.976;2023-06-22T05:16:15;100680.69;;;31.79;43.68
5966;BME280;3009;43.224;27.976;2023-06-22T05:18:43;100679.19;;;31.65;43.17
5966;BME280;3009;43.224;27.976;2023-06-22T05:21:12;100689.03;;;30.47;44.63
5966;BME280;3009;43.224;27.976;2023-06-22T05:23:42;100688.44;;;30.39;44.35
5966;BME280;3009;43.224;27.976;2023-06-22T05:26:10;100684.44;;;30.56;44.16
5966;BME280;3009;43.224;27.976;2023-06-22T05:28:39;100684.16;;;30.93;43.74
5966;BME280;3009;43.224;27.976;2023-06-22T05:31:07;100695.78;;;30.88;43.73
5966;BME280;3009;43.224;27.976;2023-06-22T05:33:36;100690.75;;;29.82;45.54
5966;BME280;3009;43.224;27.976;2023-06-22T05:36:05;100682.03;;;31.74;42.46
5966;BME280;3009;43.224;27.976;2023-06-22T05:38:33;100678.06;;;31.50;41.83
5966;BME280;3009;43.224;27.976;2023-06-22T05:41:04;100689.09;;;31.88;40.99
5966;BME280;3009;43.224;27.976;2023-06-22T05:43:32;100688.47;;;32.19;41.34
5966;BME280;3009;43.224;27.976;2023-06-22T05:46:02;100680.19;;;32.73;39.79
5966;BME280;3009;43.224;27.976;2023-06-22T05:48:30;100676.97;;;31.08;41.86
5966;BME280;3009;43.224;27.976;2023-06-22T05:50:59;100676.94;;;30.70;43.83
5966;BME280;3009;43.224;27.976;2023-06-22T05:53:27;100683.22;;;31.86;41.20
5966;BME280;3009;43.224;27.976;2023-06-22T05:55:56;100674.94;;;32.75;38.18
5966;BME280;3009;43.224;27.976;2023-06-22T05:58:25;100667.72;;;32.11;39.04
5966;BME280;3009;43.224;27.976;2023-06-22T06:00:54;100669.56;;;33.12;38.74
5966;BME280;3009;43.224;27.976;2023-06-22T06:03:22;100673.28;;;34.33;37.05
5966;BME280;3009;43.224;27.976;2023-06-22T06:05:51;100677.28;;;33.17;37.46
5966;BME280;3009;43.224;27.976;2023-06-22T06:08:19;100670.03;;;34.34;35.89
5966;BME280;3009;43.224;27.976;2023-06-22T06:10:48;100666.91;;;35.60;33.59
5966;BME280;3009;43.224;27.976;2023-06-22T06:13:17;100680.56;;;33.84;35.50
5966;BME280;3009;43.224;27.976;2023-06-22T06:15:47;100674.72;;;32.91;37.01
5966;BME280;3009;43.224;27.976;2023-06-22T06:18:15;100668.03;;;32.57;37.55
5966;BME280;3009;43.224;27.976;2023-06-22T06:20:43;100677.09;;;32.71;38.15
5966;BME280;3009;43.224;27.976;2023-06-22T06:23:12;100677.88;;;32.27;39.91
5966;BME280;3009;43.224;27.976;2023-06-22T06:25:40;100678.41;;;33.97;36.19
5966;BME280;3009;43.224;27.976;2023-06-22T06:28:09;100671.31;;;35.19;33.89
5966;BME280;3009;43.224;27.976;2023-06-22T06:30:37;100671.28;;;34.05;35.31
5966;BME280;3009;43.224;27.976;2023-06-22T06:33:07;100675.78;;;34.21;35.06
5966;BME280;3009;43.224;27.976;2023-06-22T06:35:36;100675.41;;;35.08;34.03
5966;BME280;3009;43.224;27.976;2023-06-22T06:38:04;100666.13;;;36.83;31.26
5966;BME280;3009;43.224;27.976;2023-06-22T06:40:33;100674.59;;;36.88;30.95
5966;BME280;3009;43.224;27.976;2023-06-22T06:43:01;100672.53;;;34.32;34.09
5966;BME280;3009;43.224;27.976;2023-06-22T06:45:30;100670.28;;;35.40;32.77
5966;BME280;3009;43.224;27.976;2023-06-22T06:48:00;100678.81;;;33.59;35.83
5966;BME280;3009;43.224;27.976;2023-06-22T06:50:30;100671.88;;;34.47;35.14
5966;BME280;3009;43.224;27.976;2023-06-22T06:52:59;100678.81;;;37.19;31.39
5966;BME280;3009;43.224;27.976;2023-06-22T06:55:28;100684.75;;;37.83;29.70
5966;BME280;3009;43.224;27.976;2023-06-22T06:58:00;100679.25;;;36.97;30.78
5966;BME280;3009;43.224;27.976;2023-06-22T07:00:28;100683.22;;;35.28;32.00
5966;BME280;3009;43.224;27.976;2023-06-22T07:02:57;100679.03;;;35.33;31.42
5966;BME280;3009;43.224;27.976;2023-06-22T07:05:26;100693.03;;;34.63;32.69
5966;BME280;3009;43.224;27.976;2023-06-22T07:07:56;100686.38;;;33.58;34.87
5966;BME280;3009;43.224;27.976;2023-06-22T07:10:24;100683.78;;;34.99;33.18
5966;BME280;3009;43.224;27.976;2023-06-22T07:12:54;100693.81;;;34.54;34.50
5966;BME280;3009;43.224;27.976;2023-06-22T07:15:24;100696.69;;;33.08;36.54
5966;BME280;3009;43.224;27.976;2023-06-22T07:17:52;100699.94;;;33.47;35.53
5966;BME280;3009;43.224;27.976;2023-06-22T07:20:21;100690.00;;;34.33;34.60
5966;BME280;3009;43.224;27.976;2023-06-22T07:22:50;100697.50;;;32.77;37.22
5966;BME280;3009;43.224;27.976;2023-06-22T07:25:21;100696.97;;;33.91;36.79
5966;BME280;3009;43.224;27.976;2023-06-22T07:27:57;100699.09;;;34.33;35.22
5966;BME280;3009;43.224;27.976;2023-06-22T07:30:26;100693.19;;;33.66;35.75
5966;BME280;3009;43.224;27.976;2023-06-22T07:32:56;100685.00;;;35.07;34.65
5966;BME280;3009;43.224;27.976;2023-06-22T07:35:25;100689.19;;;34.51;35.06
5966;BME280;3009;43.224;27.976;2023-06-22T07:37:53;100694.06;;;35.51;34.06
5966;BME280;3009;43.224;27.976;2023-06-22T07:40:24;100701.88;;;35.04;33.81
5966;BME280;3009;43.224;27.976;2023-06-22T07:42:55;100691.78;;;33.71;32.94
5966;BME280;3009;43.224;27.976;2023-06-22T07:45:27;100711.78;;;33.97;36.14
5966;BME280;3009;43.224;27.976;2023-06-22T07:47:55;100706.38;;;34.03;36.73
5966;BME280;3009;43.224;27.976;2023-06-22T07:50:24;100707.50;;;33.06;37.37
5966;BME280;3009;43.224;27.976;2023-06-22T07:52:57;100706.97;;;32.89;39.54
5966;BME280;3009;43.224;27.976;2023-06-22T07:55:27;100700.91;;;32.14;41.34
5966;BME280;3009;43.224;27.976;2023-06-22T07:57:56;100702.44;;;33.13;40.38
5966;BME280;3009;43.224;27.976;2023-06-22T08:00:25;100704.25;;;33.38;39.10
5966;BME280;3009;43.224;27.976;2023-06-22T08:02:53;100707.75;;;34.07;39.01
5966;BME280;3009;43.224;27.976;2023-06-22T08:05:21;100710.31;;;33.65;39.30
5966;BME280;3009;43.224;27.976;2023-06-22T08:07:50;100707.50;;;33.37;40.88
5966;BME280;3009;43.224;27.976;2023-06-22T08:10:19;100701.88;;;30.96;44.84
5966;BME280;3009;43.224;27.976;2023-06-22T08:12:49;100699.81;;;30.57;48.83
5966;BME280;3009;43.224;27.976;2023-06-22T08:15:18;100700.66;;;30.42;46.76
5966;BME280;3009;43.224;27.976;2023-06-22T08:17:47;100709.22;;;29.85;48.61
5966;BME280;3009;43.224;27.976;2023-06-22T08:20:15;100700.81;;;29.39;50.35
5966;BME280;3009;43.224;27.976;2023-06-22T08:22:44;100716.06;;;28.71;51.66
5966;BME280;3009;43.224;27.976;2023-06-22T08:25:12;100704.53;;;28.76;52.55
5966;BME280;3009;43.224;27.976;2023-06-22T08:27:44;100713.94;;;28.78;51.22
5966;BME280;3009;43.224;27.976;2023-06-22T08:30:15;100716.50;;;28.69;50.70
5966;BME280;3009;43.224;27.976;2023-06-22T08:32:43;100703.91;;;28.88;69.16
5966;BME280;3009;43.224;27.976;2023-06-22T08:35:12;100713.22;;;28.94;71.83
5966;BME280;3009;43.224;27.976;2023-06-22T08:37:40;100713.59;;;28.76;72.73
5966;BME280;3009;43.224;27.976;2023-06-22T08:40:09;100719.59;;;28.71;72.36
5966;BME280;3009;43.224;27.976;2023-06-22T08:42:40;100715.94;;;29.14;69.93
5966;BME280;3009;43.224;27.976;2023-06-22T08:45:10;100713.09;;;29.18;68.51
5966;BME280;3009;43.224;27.976;2023-06-22T08:47:40;100706.22;;;28.90;70.41
5966;BME280;3009;43.224;27.976;2023-06-22T08:50:10;100704.31;;;28.87;67.14
5966;BME280;3009;43.224;27.976;2023-06-22T08:52:40;100715.75;;;29.05;67.52
5966;BME280;3009;43.224;27.976;2023-06-22T08:55:09;100714.03;;;29.11;70.37
5966;BME280;3009;43.224;27.976;2023-06-22T08:57:38;100715.06;;;28.81;72.25
5966;BME280;3009;43.224;27.976;2023-06-22T09:00:07;100716.00;;;28.94;74.83
5966;BME280;3009;43.224;27.976;2023-06-22T09:02:48;100711.66;;;28.93;75.90
5966;BME280;3009;43.224;27.976;2023-06-22T09:05:17;100707.63;;;28.98;77.01
5966;BME280;3009;43.224;27.976;2023-06-22T09:07:46;100706.25;;;29.06;79.19
5966;BME280;3009;43.224;27.976;2023-06-22T09:10:14;100704.59;;;28.72;83.06
5966;BME280;3009;43.224;27.976;2023-06-22T09:12:42;100706.16;;;28.73;82.74
5966;BME280;3009;43.224;27.976;2023-06-22T09:15:11;100713.84;;;27.98;85.01
5966;BME280;3009;43.224;27.976;2023-06-22T09:17:45;100715.88;;;28.18;87.51
5966;BME280;3009;43.224;27.976;2023-06-22T09:20:17;100724.09;;;28.41;88.67
5966;BME280;3009;43.224;27.976;2023-06-22T09:22:45;100724.50;;;28.40;89.83
5966;BME280;3009;43.224;27.976;2023-06-22T09:25:14;100725.69;;;28.19;93.06
5966;BME280;3009;43.224;27.976;2023-06-22T09:27:42;100726.03;;;28.21;90.71
5966;BME280;3009;43.224;27.976;2023-06-22T09:30:11;100738.16;;;28.47;92.24
5966;BME280;3009;43.224;27.976;2023-06-22T09:32:40;100732.22;;;28.28;81.40
5966;BME280;3009;43.224;27.976;2023-06-22T09:35:09;100733.25;;;28.15;79.83
5966;BME280;3009;43.224;27.976;2023-06-22T09:37:41;100715.50;;;27.41;77.10
5966;BME280;3009;43.224;27.976;2023-06-22T09:40:10;100720.28;;;27.88;76.73
5966;BME280;3009;43.224;27.976;2023-06-22T09:42:41;100721.84;;;28.13;74.87
5966;BME280;3009;43.224;27.976;2023-06-22T09:45:10;100719.50;;;28.35;72.63
5966;BME280;3009;43.224;27.976;2023-06-22T09:47:38;100721.25;;;28.25;70.45
5966;BME280;3009;43.224;27.976;2023-06-22T09:50:10;100724.34;;;27.80;72.80
5966;BME280;3009;43.224;27.976;2023-06-22T09:52:38;100730.72;;;28.00;73.02
5966;BME280;3009;43.224;27.976;2023-06-22T09:55:16;100736.81;;;28.35;75.12
5966;BME280;3009;43.224;27.976;2023-06-22T09:57:44;100732.09;;;28.56;74.20
5966;BME280;3009;43.224;27.976;2023-06-22T10:00:14;100735.78;;;28.49;76.29
5966;BME280;3009;43.224;27.976;2023-06-22T10:02:43;100739.34;;;28.70;78.00
5966;BME280;3009;43.224;27.976;2023-06-22T10:05:15;100733.22;;;28.58;78.33
5966;BME280;3009;43.224;27.976;2023-06-22T10:07:44;100734.75;;;28.39;80.65
5966;BME280;3009;43.224;27.976;2023-06-22T10:10:13;100738.22;;;28.23;79.59
5966;BME280;3009;43.224;27.976;2023-06-22T10:12:57;100739.59;;;28.11;80.01
5966;BME280;3009;43.224;27.976;2023-06-22T10:15:26;100733.81;;;28.26;78.58
5966;BME280;3009;43.224;27.976;2023-06-22T10:17:55;100736.56;;;27.79;77.33
5966;BME280;3009;43.224;27.976;2023-06-22T10:20:24;100730.94;;;28.09;80.37
5966;BME280;3009;43.224;27.976;2023-06-22T10:22:53;100739.13;;;28.37;80.02
5966;BME280;3009;43.224;27.976;2023-06-22T10:25:26;100736.53;;;28.29;78.54
5966;BME280;3009;43.224;27.976;2023-06-22T10:27:56;100735.47;;;28.43;81.67
5966;BME280;3009;43.224;27.976;2023-06-22T10:30:25;100732.09;;;28.36;83.99
5966;BME280;3009;43.224;27.976;2023-06-22T10:32:55;100737.97;;;27.90;86.18
5966;BME280;3009;43.224;27.976;2023-06-22T10:35:24;100738.47;;;27.82;91.91
5966;BME280;3009;43.224;27.976;2023-06-22T10:37:53;100746.03;;;27.77;90.39
5966;BME280;3009;43.224;27.976;2023-06-22T10:40:23;100737.41;;;27.17;97.01
5966;BME280;3009;43.224;27.976;2023-06-22T10:42:51;100740.53;;;26.88;98.81
5966;BME280;3009;43.224;27.976;2023-06-22T10:45:21;100733.50;;;26.87;100.00
5966;BME280;3009;43.224;27.976;2023-06-22T10:47:49;100730.94;;;27.00;100.00
5966;BME280;3009;43.224;27.976;2023-06-22T10:50:18;100733.88;;;27.17;97.78
5966;BME280;3009;43.224;27.976;2023-06-22T10:52:47;100731.28;;;27.37;98.67
5966;BME280;3009;43.224;27.976;2023-06-22T10:55:18;100724.22;;;27.36;99.90
5966;BME280;3009;43.224;27.976;2023-06-22T10:57:47;100721.13;;;27.30;100.00
5966;BME280;3009;43.224;27.976;2023-06-22T11:00:16;100730.16;;;27.62;98.71
5966;BME280;3009;43.224;27.976;2023-06-22T11:02:47;100738.34;;;27.65;97.23
5966;BME280;3009;43.224;27.976;2023-06-22T11:05:16;100731.44;;;27.53;96.75
5966;BME280;3009;43.224;27.976;2023-06-22T11:07:44;100727.19;;;27.18;91.25
5966;BME280;3009;43.224;27.976;2023-06-22T11:10:13;100728.75;;;26.88;89.21
5966;BME280;3009;43.224;27.976;2023-06-22T11:12:42;100713.78;;;27.20;94.30
5966;BME280;3009;43.224;27.976;2023-06-22T11:15:10;100724.03;;;27.19;98.28
5966;BME280;3009;43.224;27.976;2023-06-22T11:17:41;100722.19;;;27.40;98.94
5966;BME280;3009;43.224;27.976;2023-06-22T11:20:11;100719.78;;;27.15;100.00
5966;BME280;3009;43.224;27.976;2023-06-22T11:22:41;100722.72;;;27.28;100.00
5966;BME280;3009;43.224;27.976;2023-06-22T11:25:09;100730.94;;;27.31;100.00
5966;BME280;3009;43.224;27.976;2023-06-22T11:27:39;100728.06;;;27.42;100.00
5966;BME280;3009;43.224;27.976;2023-06-22T11:30:08;100735.59;;;27.38;100.00
5966;BME280;3009;43.224;27.976;2023-06-22T11:32:37;100723.88;;;26.99;100.00
5966;BME280;3009;43.224;27.976;2023-06-22T11:35:07;100724.69;;;27.00;100.00
5966;BME280;3009;43.224;27.976;2023-06-22T11:37:39;100728.38;;;27.17;100.00
5966;BME280;3009;43.224;27.976;2023-06-22T11:40:13;100724.38;;;27.21;100.00
5966;BME280;3009;43.224;27.976;2023-06-22T11:42:41;100728.19;;;27.00;92.06
5966;BME280;3009;43.224;27.976;2023-06-22T11:45:11;100719.00;;;26.83;88.80
5966;BME280;3009;43.224;27.976;2023-06-22T11:47:40;100726.00;;;26.88;85.64
5966;BME280;3009;43.224;27.976;2023-06-22T11:50:09;100725.66;;;26.86;90.23
5966;BME280;3009;43.224;27.976;2023-06-22T11:52:39;100719.50;;;27.05;93.00
5966;BME280;3009;43.224;27.976;2023-06-22T11:55:07;100726.41;;;27.17;98.86
5966;BME280;3009;43.224;27.976;2023-06-22T11:57:37;100719.50;;;27.36;100.00
5966;BME280;3009;43.224;27.976;2023-06-22T12:00:06;100717.16;;;27.35;100.00
5966;BME280;3009;43.224;27.976;2023-06-22T12:02:44;100727.50;;;27.23;97.35
5966;BME280;3009;43.224;27.976;2023-06-22T12:05:13;100717.59;;;26.64;100.00
5966;BME280;3009;43.224;27.976;2023-06-22T12:07:43;100715.66;;;26.65;100.00
5966;BME280;3009;43.224;27.976;2023-06-22T12:10:12;100712.97;;;26.58;100.00
5966;BME280;3009;43.224;27.976;2023-06-22T12:12:40;100711.81;;;26.17;100.00
5966;BME280;3009;43.224;27.976;2023-06-22T12:15:10;100716.41;;;25.78;100.00
5966;BME280;3009;43.224;27.976;2023-06-22T12:17:39;100717.66;;;26.23;100.00
5966;BME280;3009;43.224;27.976;2023-06-22T12:20:09;100719.72;;;26.49;100.00
5966;BME280;3009;43.224;27.976;2023-06-22T12:22:38;100716.25;;;26.80;100.00
5966;BME280;3009;43.224;27.976;2023-06-22T12:25:08;100712.84;;;27.03;100.00
5966;BME280;3009;43.224;27.976;2023-06-22T12:27:37;100709.78;;;26.97;100.00
5966;BME280;3009;43.224;27.976;2023-06-22T12:30:08;100710.94;;;26.96;100.00
5966;BME280;3009;43.224;27.976;2023-06-22T12:32:37;100713.91;;;26.44;100.00
5966;BME280;3009;43.224;27.976;2023-06-22T12:35:06;100714.72;;;26.41;95.31
5966;BME280;3009;43.224;27.976;2023-06-22T12:37:40;100712.69;;;26.48;98.92
5966;BME280;3009;43.224;27.976;2023-06-22T12:40:11;100705.25;;;26.45;96.33
5966;BME280;3009;43.224;27.976;2023-06-22T12:42:40;100703.44;;;26.69;94.29
5966;BME280;3009;43.224;27.976;2023-06-22T12:45:10;100700.47;;;26.49;88.70
5966;BME280;3009;43.224;27.976;2023-06-22T12:47:38;100711.63;;;26.73;92.41
5966;BME280;3009;43.224;27.976;2023-06-22T12:50:07;100710.00;;;26.79;96.60
5966;BME280;3009;43.224;27.976;2023-06-22T12:52:37;100707.38;;;26.99;99.84
5966;BME280;3009;43.224;27.976;2023-06-22T12:55:08;100712.06;;;27.02;100.00
5966;BME280;3009;43.224;27.976;2023-06-22T12:57:38;100707.75;;;27.01;100.00
5966;BME280;3009;43.224;27.976;2023-06-22T13:00:08;100706.84;;;27.12;100.00
5966;BME280;3009;43.224;27.976;2023-06-22T13:02:37;100701.50;;;27.28;99.15
5966;BME280;3009;43.224;27.976;2023-06-22T13:05:06;100703.75;;;27.37;93.38
5966;BME280;3009;43.224;27.976;2023-06-22T13:07:34;100705.22;;;27.45;92.80
5966;BME280;3009;43.224;27.976;2023-06-22T13:10:03;100707.38;;;27.57;91.25